createdAt,value
2022-11-16T00:00:35.259Z,10.07
2022-11-16T00:03:02.835Z,10.50
2022-11-16T00:05:29.283Z,10.57
2022-11-16T00:07:55.806Z,9.63
2022-11-16T00:10:22.247Z,9.55
2022-11-16T00:12:48.645Z,9.63
2022-11-16T00:15:15.201Z,8.27
2022-11-16T00:17:41.583Z,9.38
2022-11-16T00:20:08.685Z,9.18
2022-11-16T00:22:35.079Z,8.88
2022-11-16T00:25:01.477Z,8.73
2022-11-16T00:27:27.863Z,9.20
2022-11-16T00:29:54.265Z,10.05
2022-11-16T00:32:20.666Z,8.50
2022-11-16T00:34:47.071Z,9.75
2022-11-16T00:37:13.508Z,9.93
2022-11-16T00:39:39.913Z,9.65
2022-11-16T00:42:06.302Z,10.05
2022-11-16T00:44:32.718Z,10.98
2022-11-16T00:46:59.204Z,9.80
2022-11-16T00:49:25.609Z,10.25
2022-11-16T00:51:52.013Z,10.43
2022-11-16T00:54:18.458Z,10.85
2022-11-16T00:56:44.849Z,9.98
2022-11-16T00:59:11.257Z,11.05
2022-11-16T01:01:37.772Z,10.65
2022-11-16T01:04:04.384Z,10.93
2022-11-16T01:06:30.798Z,11.05
2022-11-16T01:08:57.217Z,10.98
2022-11-16T01:11:23.648Z,11.10
2022-11-16T01:13:50.110Z,10.18
2022-11-16T01:16:17.127Z,10.57
2022-11-16T01:18:44.264Z,10.95
2022-11-16T01:21:10.665Z,10.18
2022-11-16T01:23:37.072Z,11.00
2022-11-16T01:26:03.581Z,10.27
2022-11-16T01:28:30.129Z,11.75
2022-11-16T01:30:56.729Z,10.43
2022-11-16T01:33:23.276Z,10.48
2022-11-16T01:35:49.715Z,9.63
2022-11-16T01:38:16.128Z,10.98
2022-11-16T01:40:42.554Z,11.23
2022-11-16T01:43:19.637Z,11.07
2022-11-16T01:45:46.149Z,10.75
2022-11-16T01:48:19.155Z,12.70
2022-11-16T01:50:45.727Z,10.32
2022-11-16T01:53:12.106Z,10.90
2022-11-16T01:55:38.549Z,11.40
2022-11-16T01:58:04.929Z,11.63
2022-11-16T02:00:31.312Z,11.05
2022-11-16T02:02:57.702Z,11.55
2022-11-16T02:05:55.478Z,10.43
2022-11-16T02:08:59.305Z,11.27
2022-11-16T02:11:58.123Z,11.02
2022-11-16T02:14:37.648Z,10.77
2022-11-16T02:17:12.824Z,11.30
2022-11-16T02:20:00.310Z,11.43
2022-11-16T02:22:43.748Z,11.70
2022-11-16T02:25:37.178Z,10.88
2022-11-16T02:28:22.035Z,11.48
2022-11-16T02:30:49.349Z,10.80
2022-11-16T02:33:18.295Z,10.82
2022-11-16T02:35:50.241Z,11.80
2022-11-16T02:38:22.744Z,10.48
2022-11-16T02:40:51.565Z,11.93
2022-11-16T02:43:21.844Z,11.90
2022-11-16T02:45:49.805Z,11.77
2022-11-16T02:48:27.758Z,11.57
2022-11-16T02:50:54.170Z,12.70
2022-11-16T02:53:21.163Z,12.32
2022-11-16T02:55:47.569Z,11.55
2022-11-16T02:58:14.605Z,11.40
2022-11-16T03:00:48.251Z,11.75
2022-11-16T03:03:28.036Z,10.88
2022-11-16T03:06:18.516Z,11.60
2022-11-16T03:08:52.052Z,10.55
2022-11-16T03:11:18.481Z,11.90
2022-11-16T03:13:44.902Z,12.27
2022-11-16T03:16:14.670Z,12.27
2022-11-16T03:21:17.580Z,11.52
2022-11-16T03:23:44.964Z,13.10
2022-11-16T03:26:11.356Z,12.05
2022-11-16T03:28:47.759Z,11.65
2022-11-16T03:31:16.896Z,12.60
2022-11-16T03:33:45.703Z,11.73
2022-11-16T03:36:23.394Z,12.98
2022-11-16T03:38:49.872Z,13.02
2022-11-16T03:41:16.265Z,13.23
2022-11-16T03:43:42.682Z,12.90
2022-11-16T03:46:09.080Z,11.55
2022-11-16T03:48:36.360Z,14.13
2022-11-16T03:51:03.524Z,12.88
2022-11-16T03:53:29.924Z,13.43
2022-11-16T03:55:56.356Z,13.55
2022-11-16T03:58:22.820Z,12.98
2022-11-16T04:00:49.272Z,12.35
2022-11-16T04:03:15.679Z,12.60
2022-11-16T04:05:42.260Z,13.52
2022-11-16T04:08:16.007Z,12.27
2022-11-16T04:10:42.577Z,12.57
2022-11-16T04:13:10.664Z,12.98
2022-11-16T04:15:37.084Z,12.13
2022-11-16T04:18:03.604Z,11.98
2022-11-16T04:20:30.026Z,12.43
2022-11-16T04:23:08.396Z,11.88
2022-11-16T04:25:35.610Z,11.98
2022-11-16T04:28:02.669Z,11.98
2022-11-16T04:30:29.056Z,11.93
2022-11-16T04:32:55.461Z,12.00
2022-11-16T04:35:21.868Z,12.27
2022-11-16T04:37:48.291Z,11.48
2022-11-16T04:40:25.256Z,12.25
2022-11-16T04:42:58.997Z,11.48
2022-11-16T04:45:25.883Z,12.02
2022-11-16T04:47:52.373Z,11.63
2022-11-16T04:50:18.908Z,12.25
2022-11-16T04:52:45.307Z,12.68
2022-11-16T04:55:11.996Z,13.15
2022-11-16T04:57:38.821Z,12.13
2022-11-16T05:00:06.375Z,11.90
2022-11-16T05:02:32.862Z,12.55
2022-11-16T05:04:59.305Z,12.85
2022-11-16T05:07:25.773Z,13.70
2022-11-16T05:09:52.276Z,12.90
2022-11-16T05:12:21.707Z,12.38
2022-11-16T05:14:48.116Z,12.82
2022-11-16T05:17:14.631Z,11.68
2022-11-16T05:19:41.256Z,11.95
2022-11-16T05:22:07.645Z,12.68
2022-11-16T05:24:34.051Z,12.40
2022-11-16T05:27:04.494Z,11.68
2022-11-16T05:29:30.901Z,11.82
2022-11-16T05:31:58.068Z,11.93
2022-11-16T05:34:24.483Z,10.77
2022-11-16T05:36:50.923Z,11.40
2022-11-16T05:39:17.326Z,10.43
2022-11-16T05:41:43.745Z,10.73
2022-11-16T05:44:10.191Z,11.13
2022-11-16T05:46:36.695Z,11.40
2022-11-16T05:49:03.267Z,10.63
2022-11-16T05:51:29.685Z,11.98
2022-11-16T05:53:56.080Z,12.18
2022-11-16T05:56:22.546Z,11.65
2022-11-16T05:58:49.005Z,10.30
2022-11-16T06:01:15.446Z,11.07
2022-11-16T06:03:41.889Z,10.50
2022-11-16T06:06:08.352Z,10.70
2022-11-16T06:08:35.046Z,11.57
2022-11-16T06:11:05.222Z,10.10
2022-11-16T06:13:32.103Z,10.93
2022-11-16T06:15:58.901Z,11.70
2022-11-16T06:18:25.527Z,11.10
2022-11-16T06:20:51.955Z,10.93
2022-11-16T06:23:18.428Z,11.65
2022-11-16T06:25:44.839Z,12.27
2022-11-16T06:28:11.259Z,12.70
2022-11-16T06:30:37.845Z,11.38
2022-11-16T06:33:04.843Z,11.27
2022-11-16T06:35:31.251Z,10.30
2022-11-16T06:37:57.797Z,12.27
2022-11-16T06:40:24.849Z,11.30
2022-11-16T06:42:52.766Z,9.60
2022-11-16T06:45:19.178Z,11.23
2022-11-16T06:47:47.686Z,10.80
2022-11-16T06:52:57.820Z,10.45
2022-11-16T06:55:24.225Z,10.15
2022-11-16T06:57:50.627Z,10.30
2022-11-16T07:00:17.581Z,10.93
2022-11-16T07:02:44.076Z,11.07
2022-11-16T07:05:10.533Z,10.85
2022-11-16T07:07:37.067Z,11.55
2022-11-16T07:10:03.791Z,10.95
2022-11-16T07:12:30.200Z,10.95
2022-11-16T07:14:56.645Z,11.85
2022-11-16T07:17:23.061Z,11.32
2022-11-16T07:19:49.462Z,11.07
2022-11-16T07:22:15.881Z,11.82
2022-11-16T07:24:42.371Z,10.20
2022-11-16T07:27:08.798Z,11.73
2022-11-16T07:29:35.225Z,11.43
2022-11-16T07:32:01.645Z,11.52
2022-11-16T07:34:28.107Z,12.95
2022-11-16T07:36:54.583Z,12.10
2022-11-16T07:39:20.970Z,11.95
2022-11-16T07:41:47.582Z,11.63
2022-11-16T07:44:14.047Z,12.60
2022-11-16T07:46:48.636Z,12.38
2022-11-16T07:49:16.175Z,12.95
2022-11-16T07:51:42.758Z,11.20
2022-11-16T07:54:12.731Z,13.38
2022-11-16T07:56:39.218Z,11.68
2022-11-16T07:59:05.647Z,13.15
2022-11-16T08:01:35.810Z,12.55
2022-11-16T08:04:02.331Z,12.40
2022-11-16T08:06:30.270Z,12.65
2022-11-16T08:08:58.936Z,12.52
2022-11-16T08:11:25.705Z,12.85
2022-11-16T08:13:52.306Z,13.00
2022-11-16T08:16:20.386Z,12.57
2022-11-16T08:18:46.820Z,12.57
2022-11-16T08:21:14.369Z,12.40
2022-11-16T08:23:41.005Z,14.10
2022-11-16T08:26:15.789Z,12.50
2022-11-16T08:28:43.495Z,13.77
2022-11-16T08:31:11.655Z,12.73
2022-11-16T08:33:38.170Z,13.63
2022-11-16T08:36:10.880Z,12.50
2022-11-16T08:38:40.151Z,12.98
2022-11-16T08:41:06.915Z,13.50
2022-11-16T08:43:33.346Z,13.45
2022-11-16T08:46:00.303Z,13.27
2022-11-16T08:48:26.856Z,14.25
2022-11-16T08:51:16.435Z,13.65
2022-11-16T08:53:39.758Z,12.73
2022-11-16T08:56:10.276Z,12.57
2022-11-16T08:58:36.840Z,13.02
2022-11-16T09:01:10.615Z,13.82
2022-11-16T09:03:37.962Z,14.05
2022-11-16T09:06:05.149Z,12.45
2022-11-16T09:08:31.849Z,13.60
2022-11-16T09:10:58.452Z,12.80
2022-11-16T09:13:25.084Z,12.30
2022-11-16T09:15:58.475Z,12.40
2022-11-16T09:18:25.175Z,14.70
2022-11-16T09:20:51.710Z,11.70
2022-11-16T09:23:22.347Z,13.50
2022-11-16T09:25:51.436Z,12.85
2022-11-16T09:28:18.260Z,12.68
2022-11-16T09:30:45.361Z,13.20
2022-11-16T09:33:11.814Z,12.02
2022-11-16T09:35:38.878Z,13.52
2022-11-16T09:38:05.510Z,13.20
2022-11-16T09:40:36.532Z,13.15
2022-11-16T09:43:11.945Z,13.13
2022-11-16T09:46:14.587Z,13.82
2022-11-16T09:48:40.973Z,13.23
2022-11-16T09:51:08.706Z,13.30
2022-11-16T09:53:47.105Z,13.20
2022-11-16T09:56:22.374Z,13.02
2022-11-16T09:58:55.134Z,13.35
2022-11-16T10:01:39.692Z,13.85
2022-11-16T10:04:13.300Z,12.77
2022-11-16T10:07:01.096Z,14.63
2022-11-16T10:09:27.542Z,13.82
2022-11-16T10:12:05.512Z,14.43
2022-11-16T10:15:00.138Z,14.15
2022-11-16T10:17:40.929Z,13.77
2022-11-16T10:20:30.851Z,12.57
2022-11-16T10:23:00.681Z,13.00
2022-11-16T10:25:42.188Z,13.27
2022-11-16T10:28:32.866Z,13.07
2022-11-16T10:31:14.964Z,13.30
2022-11-16T10:33:42.207Z,13.93
2022-11-16T10:36:11.745Z,13.55
2022-11-16T10:38:38.162Z,13.55
2022-11-16T10:41:19.055Z,13.55
2022-11-16T10:43:46.814Z,12.98
2022-11-16T10:46:19.313Z,13.75
2022-11-16T10:49:06.644Z,13.75
2022-11-16T10:51:33.108Z,13.55
2022-11-16T10:53:59.547Z,14.23
2022-11-16T10:56:28.426Z,13.18
2022-11-16T10:58:58.669Z,12.95
2022-11-16T11:01:40.808Z,14.18
2022-11-16T11:04:17.041Z,14.13
2022-11-16T11:06:43.720Z,15.25
2022-11-16T11:09:32.640Z,13.73
2022-11-16T11:12:16.000Z,12.85
2022-11-16T11:14:42.482Z,16.00
2022-11-16T11:17:11.123Z,15.30
2022-11-16T11:19:37.549Z,15.13
2022-11-16T11:22:03.989Z,14.88
2022-11-16T11:24:45.857Z,13.35
2022-11-16T11:27:12.422Z,15.50
2022-11-16T11:29:38.805Z,15.27
2022-11-16T11:32:24.683Z,14.27
2022-11-16T11:34:54.327Z,14.50
2022-11-16T11:37:27.334Z,14.40
2022-11-16T11:40:27.563Z,14.05
2022-11-16T11:42:56.740Z,14.27
2022-11-16T11:45:31.211Z,14.32
2022-11-16T11:48:21.950Z,13.45
2022-11-16T11:51:03.676Z,13.65
2022-11-16T11:56:03.259Z,12.98
2022-11-16T11:58:31.246Z,15.40
2022-11-16T12:01:23.748Z,15.02
2022-11-16T12:04:16.493Z,13.90
2022-11-16T12:06:56.819Z,15.30
2022-11-16T12:10:21.734Z,16.00
2022-11-16T12:13:21.441Z,15.40
2022-11-16T12:16:08.178Z,15.57
2022-11-16T12:18:37.611Z,14.73
2022-11-16T12:21:15.932Z,13.90
2022-11-16T12:24:06.589Z,15.70
2022-11-16T12:26:50.577Z,15.30
2022-11-16T12:29:24.107Z,15.75
2022-11-16T12:31:56.117Z,15.60
2022-11-16T12:35:03.445Z,15.18
2022-11-16T12:37:48.198Z,17.40
2022-11-16T12:40:34.386Z,14.82
2022-11-16T12:43:38.154Z,14.95
2022-11-16T12:46:22.717Z,15.88
2022-11-16T12:49:35.523Z,14.60
2022-11-16T12:52:17.322Z,15.02
2022-11-16T12:55:04.222Z,16.80
2022-11-16T12:57:44.549Z,14.55
2022-11-16T13:00:15.549Z,15.10
2022-11-16T13:02:54.120Z,14.68
2022-11-16T13:05:44.209Z,15.15
2022-11-16T13:08:35.361Z,17.08
2022-11-16T13:11:21.941Z,15.68
2022-11-16T13:13:53.447Z,16.10
2022-11-16T13:16:20.391Z,17.70
2022-11-16T13:18:46.835Z,16.42
2022-11-16T13:21:25.577Z,15.00
2022-11-16T13:24:19.411Z,15.82
2022-11-16T13:27:08.418Z,14.77
2022-11-16T13:29:42.857Z,15.93
2022-11-16T13:32:15.238Z,18.98
2022-11-16T13:34:41.735Z,16.95
2022-11-16T13:37:39.343Z,15.10
2022-11-16T13:40:05.661Z,15.70
2022-11-16T13:42:58.667Z,16.38
2022-11-16T13:45:25.143Z,15.63
2022-11-16T13:47:55.543Z,17.25
2022-11-16T13:50:23.390Z,15.95
2022-11-16T13:53:57.522Z,15.90
2022-11-16T13:55:42.698Z,17.38
2022-11-16T13:58:10.902Z,14.25
2022-11-16T14:00:39.325Z,14.73
2022-11-16T14:03:11.960Z,13.90
2022-11-16T14:05:40.150Z,14.50
2022-11-16T14:08:18.713Z,14.82
2022-11-16T14:10:45.014Z,13.75
2022-11-16T14:13:29.854Z,13.10
2022-11-16T14:16:15.501Z,13.23
2022-11-16T14:18:42.426Z,12.35
2022-11-16T14:21:36.418Z,12.27
2022-11-16T14:24:27.462Z,12.15
2022-11-16T14:27:05.988Z,10.50
2022-11-16T14:29:41.375Z,10.63
2022-11-16T14:34:47.990Z,10.23
2022-11-16T14:37:21.448Z,11.15
2022-11-16T14:39:49.550Z,11.05
2022-11-16T14:42:17.975Z,11.13
2022-11-16T14:44:44.384Z,12.07
2022-11-16T14:47:27.776Z,11.30
2022-11-16T14:49:54.872Z,9.75
2022-11-16T14:52:36.865Z,11.48
2022-11-16T14:55:06.595Z,9.57
2022-11-16T14:57:33.000Z,10.40
2022-11-16T15:00:17.668Z,10.70
2022-11-16T15:02:51.697Z,11.15
2022-11-16T15:05:23.433Z,10.77
2022-11-16T15:07:51.876Z,9.93
2022-11-16T15:10:23.655Z,10.85
2022-11-16T15:12:50.548Z,11.68
2022-11-16T15:15:25.879Z,10.90
2022-11-16T15:18:13.214Z,11.88
2022-11-16T15:20:49.631Z,10.48
2022-11-16T15:23:16.092Z,13.68
2022-11-16T15:25:46.345Z,11.45
2022-11-16T15:28:22.937Z,12.05
2022-11-16T15:30:51.048Z,12.43
2022-11-16T15:33:38.219Z,11.75
2022-11-16T15:36:33.104Z,11.95
2022-11-16T15:39:00.388Z,12.35
2022-11-16T15:41:27.110Z,12.90
2022-11-16T15:44:13.396Z,13.55
2022-11-16T15:46:41.399Z,11.50
2022-11-16T15:49:23.108Z,11.70
2022-11-16T15:51:49.556Z,12.13
2022-11-16T15:54:27.027Z,11.23
2022-11-16T15:56:55.652Z,11.25
2022-11-16T15:59:30.355Z,11.88
2022-11-16T16:01:56.788Z,11.43
2022-11-16T16:04:23.251Z,10.52
2022-11-16T16:06:54.206Z,12.00
2022-11-16T16:09:37.724Z,11.07
2022-11-16T16:12:20.152Z,10.80
2022-11-16T16:14:47.115Z,11.07
2022-11-16T16:17:30.251Z,10.70
2022-11-16T16:20:00.545Z,9.98
2022-11-16T16:22:36.700Z,10.13
2022-11-16T16:25:04.643Z,9.07
2022-11-16T16:27:31.690Z,9.93
2022-11-16T16:29:58.909Z,8.82
2022-11-16T16:32:25.901Z,9.45
2022-11-16T16:34:56.641Z,9.60
2022-11-16T16:37:23.307Z,9.75
2022-11-16T16:39:49.737Z,10.18
2022-11-16T16:42:16.488Z,9.73
2022-11-16T16:44:43.372Z,8.05
2022-11-16T16:47:10.011Z,9.25
2022-11-16T16:49:36.475Z,7.32
2022-11-16T16:52:03.391Z,8.85
2022-11-16T16:54:29.824Z,9.02
2022-11-16T16:56:56.416Z,8.77
2022-11-16T16:59:22.899Z,8.13
2022-11-16T17:01:49.961Z,8.25
2022-11-16T17:04:16.395Z,7.97
2022-11-16T17:06:46.473Z,7.63
2022-11-16T17:09:13.251Z,8.32
2022-11-16T17:11:39.691Z,7.57
2022-11-16T17:14:06.091Z,7.32
2022-11-16T17:16:32.587Z,6.72
2022-11-16T17:18:58.990Z,7.80
2022-11-16T17:21:25.423Z,7.57
2022-11-16T17:23:51.857Z,6.20
2022-11-16T17:26:18.274Z,6.72
2022-11-16T17:28:44.737Z,7.93
2022-11-16T17:31:11.932Z,8.15
2022-11-16T17:33:39.931Z,7.38
2022-11-16T17:36:07.238Z,8.15
2022-11-16T17:38:34.007Z,7.35
2022-11-16T17:41:08.422Z,7.82
2022-11-16T17:43:35.360Z,7.18
2022-11-16T17:46:22.657Z,6.70
2022-11-16T17:48:49.104Z,6.68
2022-11-16T17:51:17.067Z,7.07
2022-11-16T17:53:43.493Z,7.28
2022-11-16T17:56:18.050Z,6.70
2022-11-16T17:58:44.470Z,6.38
2022-11-16T18:01:11.487Z,6.35
2022-11-16T18:03:38.308Z,6.45
2022-11-16T18:06:12.466Z,6.13
2022-11-16T18:08:39.328Z,5.60
2022-11-16T18:11:26.279Z,6.03
2022-11-16T18:13:56.760Z,5.13
2022-11-16T18:16:24.547Z,5.18
2022-11-16T18:18:58.881Z,6.35
2022-11-16T18:21:25.334Z,6.13
2022-11-16T18:23:51.765Z,5.90
2022-11-16T18:26:19.149Z,4.65
2022-11-16T18:28:45.564Z,4.75
2022-11-16T18:31:13.502Z,4.78
2022-11-16T18:33:39.984Z,5.32
2022-11-16T18:36:07.082Z,5.30
2022-11-16T18:38:33.582Z,5.00
2022-11-16T18:41:12.057Z,4.40
2022-11-16T18:43:58.842Z,5.30
2022-11-16T18:46:29.788Z,3.85
2022-11-16T18:48:56.284Z,4.53
2022-11-16T18:51:23.207Z,4.68
2022-11-16T18:53:49.666Z,5.97
2022-11-16T18:56:16.171Z,5.80
2022-11-16T18:58:52.052Z,5.05
2022-11-16T19:01:23.579Z,5.68
2022-11-16T19:03:51.172Z,5.00
2022-11-16T19:06:18.028Z,6.13
2022-11-16T19:08:46.855Z,5.47
2022-11-16T19:11:16.811Z,5.90
2022-11-16T19:13:43.498Z,5.75
2022-11-16T19:16:10.732Z,6.20
2022-11-16T19:18:37.328Z,6.18
2022-11-16T19:21:08.304Z,5.85
2022-11-16T19:23:41.597Z,6.65
2022-11-16T19:26:08.308Z,5.60
2022-11-16T19:28:38.664Z,5.93
2022-11-16T19:31:08.707Z,5.47
2022-11-16T19:33:35.397Z,5.95
2022-11-16T19:36:11.735Z,5.13
2022-11-16T19:38:38.192Z,6.75
2022-11-16T19:41:05.280Z,6.57
2022-11-16T19:43:32.097Z,5.85
2022-11-16T19:46:15.444Z,5.78
2022-11-16T19:48:42.260Z,5.25
2022-11-16T19:51:14.336Z,7.13
2022-11-16T19:53:41.141Z,6.35
2022-11-16T19:56:10.035Z,7.85
2022-11-16T19:58:36.560Z,6.78
2022-11-16T20:01:07.716Z,5.97
2022-11-16T20:03:34.816Z,6.20
2022-11-16T20:06:21.558Z,6.53
2022-11-16T20:08:51.877Z,5.15
2022-11-16T20:11:22.883Z,4.97
2022-11-16T20:13:51.243Z,5.68
2022-11-16T20:16:18.707Z,5.50
2022-11-16T20:18:45.371Z,5.40
2022-11-16T20:21:19.690Z,5.55
2022-11-16T20:23:46.160Z,5.20
2022-11-16T20:26:13.287Z,6.25
2022-11-16T20:28:41.078Z,6.22
2022-11-16T20:31:08.415Z,6.85
2022-11-16T20:33:35.253Z,7.13
2022-11-16T20:36:06.715Z,7.05
2022-11-16T20:38:33.940Z,6.22
2022-11-16T20:41:27.620Z,6.82
2022-11-16T20:43:58.016Z,6.18
2022-11-16T20:46:28.590Z,6.53
2022-11-16T20:48:55.157Z,6.70
2022-11-16T20:51:21.567Z,5.55
2022-11-16T20:53:48.327Z,5.93
2022-11-16T20:56:16.596Z,5.85
2022-11-16T20:58:43.141Z,5.30
2022-11-16T21:01:14.395Z,5.82
2022-11-16T21:03:41.025Z,5.43
2022-11-16T21:06:14.767Z,5.18
2022-11-16T21:08:41.352Z,4.10
2022-11-16T21:11:15.599Z,4.13
2022-11-16T21:13:42.048Z,5.28
2022-11-16T21:16:13.058Z,4.38
2022-11-16T21:18:39.873Z,5.03
2022-11-16T21:21:20.546Z,4.38
2022-11-16T21:23:47.034Z,4.07
2022-11-16T21:26:17.427Z,3.88
2022-11-16T21:28:45.538Z,4.47
2022-11-16T21:31:15.430Z,4.57
2022-11-16T21:36:14.952Z,3.72
2022-11-16T21:38:41.480Z,3.67
2022-11-16T21:41:12.394Z,3.55
2022-11-16T21:43:38.874Z,3.67
2022-11-16T21:46:16.789Z,3.85
2022-11-16T21:48:45.747Z,3.78
2022-11-16T21:51:13.883Z,3.38
2022-11-16T21:53:40.332Z,3.17
2022-11-16T21:56:07.967Z,3.78
2022-11-16T21:58:34.382Z,3.22
2022-11-16T22:01:01.397Z,2.88
2022-11-16T22:03:31.275Z,3.30
2022-11-16T22:08:25.002Z,2.95
2022-11-16T22:10:54.547Z,3.30
2022-11-16T22:13:21.030Z,2.67
2022-11-16T22:15:47.634Z,3.00
2022-11-16T22:18:14.175Z,3.03
2022-11-16T22:20:40.819Z,2.38
2022-11-16T22:23:07.348Z,3.28
2022-11-16T22:25:36.549Z,2.70
2022-11-16T22:28:20.140Z,2.50
2022-11-16T22:30:51.360Z,2.38
2022-11-16T22:33:18.595Z,2.40
2022-11-16T22:35:46.811Z,2.42
2022-11-16T22:38:13.324Z,2.85
2022-11-16T22:40:39.752Z,2.45
2022-11-16T22:43:06.187Z,2.78
2022-11-16T22:45:32.614Z,2.70
2022-11-16T22:47:59.043Z,2.55
2022-11-16T22:50:25.519Z,2.58
2022-11-16T22:52:51.934Z,3.13
2022-11-16T22:55:18.354Z,2.40
2022-11-16T22:57:44.816Z,2.40
2022-11-16T23:00:12.165Z,2.60
2022-11-16T23:02:38.593Z,2.70
2022-11-16T23:05:05.341Z,2.45
2022-11-16T23:07:31.870Z,2.92
2022-11-16T23:09:58.395Z,2.25
2022-11-16T23:12:24.848Z,2.80
2022-11-16T23:14:51.247Z,2.10
2022-11-16T23:17:17.664Z,2.55
2022-11-16T23:19:44.050Z,2.05
2022-11-16T23:22:14.966Z,2.55
2022-11-16T23:24:41.494Z,2.30
2022-11-16T23:27:08.688Z,2.65
2022-11-16T23:29:35.189Z,2.17
2022-11-16T23:32:01.614Z,2.15
2022-11-16T23:34:28.046Z,2.35
2022-11-16T23:36:54.452Z,3.00
2022-11-16T23:39:20.882Z,2.60
2022-11-16T23:41:47.282Z,2.25
2022-11-16T23:44:13.690Z,2.45
2022-11-16T23:46:40.088Z,2.20
2022-11-16T23:49:06.518Z,2.35
2022-11-16T23:51:32.946Z,2.28
2022-11-16T23:53:59.334Z,2.47
2022-11-16T23:56:25.765Z,2.47
2022-11-16T23:58:55.171Z,1.83
